Time;durP1;ratioP1;P1;durP2;ratioP2;P2;SDS_P1;SDS_P2;PMS_P1;PMS_P2;Temp;Humidity;BMP_temperature;BMP_pressure;BME280_temperature;BME280_humidity;BME280_pressure;Samples;Min_cycle;Max_cycle;Signal;HPM_P1;HPM_P2
2023/09/20 00:00:08;;;;;;;9.35;2.20;;;20.00;62.00;;;;;;4800780;29;20277;-31
2023/09/20 00:02:49;;;;;;;5.82;2.30;;;20.00;62.00;;;;;;4802283;29;20209;-31
2023/09/20 00:05:21;;;;;;;7.35;2.05;;;20.00;62.00;;;;;;4800914;29;20579;-31
2023/09/20 00:07:54;;;;;;;7.82;2.20;;;19.90;61.90;;;;;;4802188;29;20229;-31
2023/09/20 00:10:24;;;;;;;5.35;2.00;;;19.90;62.00;;;;;;4802129;29;20212;-31
2023/09/20 00:12:52;;;;;;;6.80;1.92;;;19.90;62.10;;;;;;4802116;29;20266;-31
2023/09/20 00:15:19;;;;;;;7.05;2.05;;;19.90;62.10;;;;;;4801776;29;20246;-31
2023/09/20 00:17:46;;;;;;;6.47;2.05;;;19.90;62.10;;;;;;4800608;29;20209;-31
2023/09/20 00:20:13;;;;;;;5.72;1.88;;;19.90;62.10;;;;;;4801938;29;20213;-31
2023/09/20 00:22:44;;;;;;;5.03;1.90;;;20.00;62.20;;;;;;4802249;29;20582;-31
2023/09/20 00:25:15;;;;;;;5.38;2.33;;;19.90;62.10;;;;;;4800818;29;20596;-31
2023/09/20 00:27:45;;;;;;;7.30;2.25;;;19.90;62.10;;;;;;4815725;29;20202;-31
2023/09/20 00:30:18;;;;;;;7.82;2.20;;;20.00;62.20;;;;;;4802670;29;20216;-31
2023/09/20 00:32:47;;;;;;;8.07;2.40;;;20.00;62.20;;;;;;4800783;29;20213;-31
2023/09/20 00:35:17;;;;;;;8.45;2.08;;;20.00;62.30;;;;;;4801853;29;20319;-31
2023/09/20 00:37:48;;;;;;;5.05;1.83;;;20.00;62.30;;;;;;4815289;29;20293;-31
2023/09/20 00:40:17;;;;;;;4.15;2.08;;;20.00;62.30;;;;;;4801804;29;20213;-31
2023/09/20 00:42:50;;;;;;;7.60;2.10;;;20.00;62.30;;;;;;4801749;29;20284;-31
2023/09/20 00:45:19;;;;;;;6.10;2.20;;;20.00;62.40;;;;;;4801731;29;20261;-31
2023/09/20 00:47:55;;;;;;;6.82;2.20;;;20.00;62.30;;;;;;4801688;29;20211;-31
2023/09/20 00:50:26;;;;;;;6.97;2.05;;;20.00;62.40;;;;;;4801443;29;20273;-31
2023/09/20 00:52:55;;;;;;;5.82;2.17;;;20.00;62.30;;;;;;4798848;29;20220;-31
2023/09/20 00:55:26;;;;;;;5.80;2.08;;;20.00;62.40;;;;;;4799799;29;20225;-31
2023/09/20 00:58:04;;;;;;;5.13;2.20;;;20.00;62.40;;;;;;4798940;29;20232;-32
2023/09/20 01:00:33;;;;;;;9.98;2.50;;;20.00;62.30;;;;;;4797587;29;20220;-31
2023/09/20 01:03:01;;;;;;;6.57;2.50;;;20.00;62.30;;;;;;4808278;29;20240;-31
2023/09/20 01:05:36;;;;;;;7.20;2.35;;;20.00;62.30;;;;;;4801377;29;20282;-31
2023/09/20 01:08:06;;;;;;;8.05;2.38;;;20.00;62.30;;;;;;4801379;29;20630;-31
2023/09/20 01:10:39;;;;;;;10.02;2.50;;;20.00;62.30;;;;;;4800949;29;20771;-31
2023/09/20 01:13:09;;;;;;;8.57;2.40;;;20.00;62.40;;;;;;4799458;29;20641;-31
2023/09/20 01:15:37;;;;;;;6.10;2.15;;;20.00;62.40;;;;;;4800702;29;20669;-31
2023/09/20 01:18:07;;;;;;;8.07;2.40;;;20.00;62.40;;;;;;4814148;29;20596;-31
2023/09/20 01:20:39;;;;;;;6.15;2.03;;;20.00;62.40;;;;;;4799376;29;20262;-31
2023/09/20 01:23:09;;;;;;;6.28;2.08;;;20.00;62.40;;;;;;4800954;29;20219;-31
2023/09/20 01:25:44;;;;;;;6.85;2.15;;;19.90;62.30;;;;;;4800673;29;20240;-31
2023/09/20 01:28:19;;;;;;;5.95;2.17;;;19.90;62.40;;;;;;4799597;29;20231;-31
2023/09/20 01:30:50;;;;;;;7.75;2.22;;;19.90;62.30;;;;;;4799369;29;20224;-31
2023/09/20 01:33:20;;;;;;;7.68;2.30;;;19.90;62.40;;;;;;4799610;29;20205;-31
2023/09/20 01:35:50;;;;;;;6.32;2.20;;;19.90;62.40;;;;;;4799427;29;20213;-31
2023/09/20 01:38:17;;;;;;;6.00;2.35;;;19.90;62.40;;;;;;4800863;29;20217;-32
2023/09/20 01:40:46;;;;;;;7.55;2.25;;;19.80;62.30;;;;;;4800996;29;20212;-31
2023/09/20 01:43:14;;;;;;;6.40;2.45;;;19.80;62.40;;;;;;4801245;29;20339;-31
2023/09/20 01:45:43;;;;;;;7.25;2.15;;;19.80;62.40;;;;;;4799205;29;20318;-31
2023/09/20 01:48:15;;;;;;;7.80;1.95;;;19.80;62.40;;;;;;4800475;29;20340;-31
2023/09/20 01:50:47;;;;;;;6.95;2.47;;;19.70;62.40;;;;;;4799107;29;20205;-31
2023/09/20 01:53:24;;;;;;;8.82;2.10;;;19.70;62.40;;;;;;4799192;29;20304;-31
2023/09/20 01:55:54;;;;;;;6.93;2.20;;;19.70;62.40;;;;;;4798854;29;20302;-31
2023/09/20 01:58:23;;;;;;;6.10;1.98;;;19.70;62.40;;;;;;4798839;29;20588;-31
2023/09/20 02:00:50;;;;;;;5.28;2.05;;;19.70;62.50;;;;;;4800046;29;20209;-31
2023/09/20 02:03:18;;;;;;;7.00;2.20;;;19.70;62.60;;;;;;4798318;29;20229;-31
2023/09/20 02:05:51;;;;;;;5.57;2.08;;;19.60;62.50;;;;;;4798913;29;20252;-31
2023/09/20 02:08:23;;;;;;;6.00;1.95;;;19.60;62.50;;;;;;4800482;29;20213;-31
2023/09/20 02:10:55;;;;;;;4.93;2.17;;;19.60;62.50;;;;;;4800230;29;20245;-31
2023/09/20 02:13:27;;;;;;;7.38;2.22;;;19.60;62.50;;;;;;4798571;29;20207;-31
2023/09/20 02:15:57;;;;;;;10.45;2.58;;;19.60;62.50;;;;;;4799036;29;20299;-31
2023/09/20 02:18:26;;;;;;;6.65;2.40;;;19.50;62.50;;;;;;4800556;29;20224;-31
2023/09/20 02:20:57;;;;;;;8.18;2.45;;;19.50;62.60;;;;;;4800321;29;20692;-31
2023/09/20 02:23:27;;;;;;;7.00;2.28;;;19.50;62.60;;;;;;4800030;29;20714;-31
2023/09/20 02:25:59;;;;;;;6.63;2.20;;;19.50;62.60;;;;;;4800073;29;20285;-31
2023/09/20 02:28:27;;;;;;;7.15;2.47;;;19.50;62.70;;;;;;4798307;29;20304;-31
2023/09/20 02:31:00;;;;;;;7.40;2.15;;;19.50;62.60;;;;;;4799782;29;20209;-31
2023/09/20 02:33:28;;;;;;;5.65;2.08;;;19.40;62.60;;;;;;4798470;29;20205;-31
2023/09/20 02:35:57;;;;;;;8.43;2.63;;;19.40;62.60;;;;;;4798398;29;20216;-31
2023/09/20 02:38:28;;;;;;;5.55;2.25;;;19.40;62.70;;;;;;4798050;29;20610;-31
2023/09/20 02:40:58;;;;;;;5.78;2.40;;;19.40;62.70;;;;;;4798167;29;20297;-31
2023/09/20 02:43:26;;;;;;;7.72;2.13;;;19.40;62.70;;;;;;4797771;29;20938;-31
2023/09/20 02:45:54;;;;;;;6.32;2.50;;;19.30;62.70;;;;;;4798259;29;20233;-31
2023/09/20 02:48:26;;;;;;;5.38;2.22;;;19.30;62.70;;;;;;4783349;29;20212;-31
2023/09/20 02:50:55;;;;;;;5.72;1.92;;;19.30;62.70;;;;;;4799310;29;20510;-31
2023/09/20 02:53:25;;;;;;;9.13;2.63;;;19.30;62.80;;;;;;4799370;29;20765;-31
2023/09/20 02:55:55;;;;;;;6.20;2.22;;;19.30;62.80;;;;;;4798422;29;20710;-31
2023/09/20 02:58:24;;;;;;;6.93;2.55;;;19.30;62.90;;;;;;4799889;29;20345;-31
2023/09/20 03:00:54;;;;;;;6.00;2.20;;;19.30;62.90;;;;;;4799407;29;20304;-31
2023/09/20 03:03:23;;;;;;;6.32;2.15;;;19.20;62.80;;;;;;4797609;29;20227;-31
2023/09/20 03:05:51;;;;;;;6.43;2.00;;;19.20;63.00;;;;;;4798987;29;20240;-31
2023/09/20 03:08:20;;;;;;;7.05;2.20;;;19.20;62.80;;;;;;4797771;29;20235;-31
2023/09/20 03:10:47;;;;;;;5.47;2.20;;;19.20;62.90;;;;;;4783498;29;20217;-31
2023/09/20 03:13:19;;;;;;;4.63;2.10;;;19.20;62.90;;;;;;4797836;29;20220;-31
2023/09/20 03:15:47;;;;;;;8.75;2.17;;;19.20;63.00;;;;;;4782610;29;20300;-31
2023/09/20 03:18:15;;;;;;;5.47;2.30;;;19.10;62.90;;;;;;4797556;29;20252;-31
2023/09/20 03:20:48;;;;;;;5.95;2.70;;;19.10;63.00;;;;;;4797670;29;20689;-31
2023/09/20 03:23:16;;;;;;;7.72;2.33;;;19.10;63.00;;;;;;4797707;29;20265;-31
2023/09/20 03:25:44;;;;;;;2.72;1.92;;;19.10;63.00;;;;;;4797661;29;20253;-31
2023/09/20 03:28:16;;;;;;;7.47;2.15;;;19.10;63.00;;;;;;4797787;29;20197;-31
2023/09/20 03:30:46;;;;;;;4.97;2.10;;;19.10;63.10;;;;;;4797939;29;20233;-31
2023/09/20 03:33:20;;;;;;;5.13;2.20;;;19.10;63.10;;;;;;4783529;29;20702;-31
2023/09/20 03:35:48;;;;;;;5.63;1.88;;;19.10;63.10;;;;;;4783607;29;20216;-31
2023/09/20 03:38:15;;;;;;;6.93;2.05;;;19.10;63.20;;;;;;4797488;29;20232;-31
2023/09/20 03:40:48;;;;;;;7.13;2.08;;;19.10;63.20;;;;;;4798912;29;20228;-31
2023/09/20 03:43:15;;;;;;;6.13;2.35;;;19.00;64.00;;;;;;4797235;29;20626;-31
2023/09/20 03:45:42;;;;;;;6.75;2.53;;;19.10;63.30;;;;;;4799031;29;20317;-31
2023/09/20 03:48:12;;;;;;;8.63;2.47;;;19.00;63.20;;;;;;4782483;29;20229;-31
2023/09/20 03:50:43;;;;;;;7.47;2.58;;;19.00;63.20;;;;;;4797399;29;20209;-31
2023/09/20 03:53:13;;;;;;;4.93;2.17;;;19.00;63.20;;;;;;4798801;29;20209;-31
2023/09/20 03:55:46;;;;;;;8.20;2.70;;;19.00;63.20;;;;;;4798612;29;20208;-31
2023/09/20 03:58:16;;;;;;;5.03;2.13;;;19.00;63.20;;;;;;4797130;29;20294;-31
2023/09/20 04:00:48;;;;;;;10.32;2.75;;;19.00;63.30;;;;;;4798738;29;20216;-30
2023/09/20 04:03:16;;;;;;;6.55;2.60;;;19.00;63.40;;;;;;4797444;29;20600;-31
2023/09/20 04:05:50;;;;;;;6.03;2.10;;;19.00;63.40;;;;;;4782760;29;20660;-31
2023/09/20 04:08:18;;;;;;;7.22;2.15;;;19.00;63.50;;;;;;4797918;29;20687;-31
2023/09/20 04:10:47;;;;;;;5.85;1.95;;;19.00;63.50;;;;;;4798777;29;20205;-31
2023/09/20 04:13:19;;;;;;;5.70;2.50;;;19.00;63.40;;;;;;4797225;29;20209;-31
2023/09/20 04:15:50;;;;;;;6.10;2.35;;;19.00;63.50;;;;;;4798746;29;20225;-31
2023/09/20 04:18:19;;;;;;;6.63;2.67;;;19.00;63.50;;;;;;4782494;29;20209;-31
2023/09/20 04:20:51;;;;;;;5.38;2.22;;;18.90;63.50;;;;;;4799110;29;20670;-31
2023/09/20 04:23:22;;;;;;;6.45;2.28;;;18.90;63.50;;;;;;4797237;29;20228;-31
2023/09/20 04:25:55;;;;;;;6.75;2.30;;;18.90;63.60;;;;;;4797046;29;20229;-31
2023/09/20 04:28:22;;;;;;;8.52;2.30;;;18.90;63.60;;;;;;4801720;29;20217;-31
2023/09/20 04:30:52;;;;;;;5.43;2.05;;;18.90;63.60;;;;;;4801682;29;20227;-31
2023/09/20 04:33:19;;;;;;;7.32;2.13;;;18.90;63.60;;;;;;4801765;29;20221;-31
2023/09/20 04:35:47;;;;;;;7.40;2.30;;;18.90;63.60;;;;;;4801863;29;20586;-31
2023/09/20 04:38:15;;;;;;;5.35;2.05;;;18.90;63.70;;;;;;4801478;29;20208;-31
2023/09/20 04:40:44;;;;;;;8.18;2.28;;;18.90;63.70;;;;;;4800318;29;20252;-31
2023/09/20 04:43:16;;;;;;;6.00;2.13;;;18.90;63.70;;;;;;4801534;29;20857;-31
2023/09/20 04:45:50;;;;;;;4.63;2.30;;;18.90;63.70;;;;;;4801563;29;20303;-31
2023/09/20 04:48:20;;;;;;;5.40;2.40;;;18.90;63.80;;;;;;4801481;29;20217;-31
2023/09/20 04:50:51;;;;;;;9.45;2.50;;;18.90;63.80;;;;;;4801206;29;20814;-31
2023/09/20 04:53:21;;;;;;;8.25;2.30;;;18.90;63.90;;;;;;4801444;29;20209;-31
2023/09/20 04:55:49;;;;;;;6.97;2.30;;;18.90;63.90;;;;;;4801220;29;20296;-31
2023/09/20 04:58:17;;;;;;;6.25;2.22;;;18.90;63.90;;;;;;4801387;29;20239;-31
2023/09/20 05:00:44;;;;;;;9.15;2.58;;;18.90;63.90;;;;;;4799857;29;20336;-31
2023/09/20 05:03:14;;;;;;;5.15;2.13;;;18.90;63.90;;;;;;4801136;29;20233;-31
2023/09/20 05:05:50;;;;;;;6.07;2.05;;;18.90;63.90;;;;;;4799633;29;20804;-31
2023/09/20 05:08:22;;;;;;;6.03;2.05;;;18.90;64.00;;;;;;4799717;29;20213;-31
2023/09/20 05:10:49;;;;;;;6.18;2.22;;;18.90;64.00;;;;;;4801087;29;20224;-31
2023/09/20 05:13:17;;;;;;;7.07;2.40;;;18.90;64.00;;;;;;4801060;29;20289;-31
2023/09/20 05:15:44;;;;;;;4.88;1.98;;;18.90;64.10;;;;;;4801531;29;20278;-31
2023/09/20 05:18:12;;;;;;;17.15;3.50;;;18.90;64.10;;;;;;4784900;29;20453;-31
2023/09/20 05:20:41;;;;;;;25.02;4.63;;;18.90;64.10;;;;;;4801082;29;20209;-31
2023/09/20 05:23:09;;;;;;;25.13;4.45;;;18.90;64.10;;;;;;4799600;29;20209;-31
2023/09/20 05:25:36;;;;;;;22.33;3.97;;;18.90;64.20;;;;;;4799134;29;20720;-31
2023/09/20 05:28:04;;;;;;;23.33;3.47;;;18.90;64.30;;;;;;4798999;29;20262;-31
2023/09/20 05:30:32;;;;;;;7.05;2.55;;;19.00;64.30;;;;;;4800532;29;20205;-31
2023/09/20 05:32:59;;;;;;;13.43;3.10;;;18.90;64.20;;;;;;4799036;29;20753;-31
2023/09/20 05:35:29;;;;;;;17.02;2.92;;;18.90;64.20;;;;;;4800860;29;20278;-31
2023/09/20 05:37:59;;;;;;;6.05;2.67;;;18.90;64.30;;;;;;4798000;29;20251;-31
2023/09/20 05:40:33;;;;;;;14.32;2.70;;;18.90;64.30;;;;;;4800193;29;20687;-31
2023/09/20 05:43:03;;;;;;;4.38;2.10;;;18.90;64.40;;;;;;4798564;29;20245;-31
2023/09/20 05:45:35;;;;;;;5.00;2.38;;;18.90;64.40;;;;;;4800367;29;20712;-31
2023/09/20 05:48:06;;;;;;;11.80;2.53;;;18.90;64.50;;;;;;4799928;29;20211;-31
2023/09/20 05:50:33;;;;;;;6.75;2.00;;;19.00;64.50;;;;;;4800514;29;20598;-31
2023/09/20 05:53:11;;;;;;;7.93;2.47;;;19.00;64.60;;;;;;4798885;29;20590;-31
2023/09/20 05:55:44;;;;;;;7.50;2.10;;;19.00;64.60;;;;;;4798824;29;20220;-31
2023/09/20 05:58:13;;;;;;;7.75;2.42;;;19.00;64.60;;;;;;4799356;29;20235;-31
2023/09/20 06:00:43;;;;;;;11.15;2.65;;;19.00;64.60;;;;;;4800143;29;20303;-31
2023/09/20 06:03:16;;;;;;;12.68;3.17;;;19.00;64.60;;;;;;4783967;29;20248;-31
2023/09/20 06:05:44;;;;;;;10.27;2.85;;;19.00;64.70;;;;;;4799850;29;20273;-31
2023/09/20 06:08:14;;;;;;;9.13;2.65;;;19.00;64.70;;;;;;4800277;29;20221;-31
2023/09/20 06:10:46;;;;;;;6.88;2.47;;;19.00;64.70;;;;;;4798838;29;20219;-31
2023/09/20 06:13:15;;;;;;;12.13;2.50;;;19.00;64.70;;;;;;4799874;29;20303;-31
2023/09/20 06:15:42;;;;;;;13.80;2.80;;;19.00;64.70;;;;;;4800036;29;20294;-31
2023/09/20 06:18:15;;;;;;;12.18;2.50;;;19.00;64.80;;;;;;4798219;29;20205;-31
2023/09/20 06:20:50;;;;;;;8.93;2.30;;;19.00;64.80;;;;;;4783707;29;20354;-31
2023/09/20 06:23:25;;;;;;;4.50;2.10;;;19.10;64.90;;;;;;4798478;29;20300;-31
2023/09/20 06:26:03;;;;;;;8.40;2.33;;;19.10;64.80;;;;;;4799480;29;20232;-31
2023/09/20 06:28:31;;;;;;;8.00;2.85;;;19.10;65.00;;;;;;4799779;29;20585;-31
2023/09/20 06:31:00;;;;;;;6.93;2.55;;;19.10;65.10;;;;;;4783286;29;20634;-31
2023/09/20 06:33:30;;;;;;;8.10;2.60;;;19.10;65.00;;;;;;4799469;29;20599;-31
2023/09/20 06:36:00;;;;;;;10.05;2.53;;;19.10;65.10;;;;;;4798337;29;20276;-31
2023/09/20 06:38:27;;;;;;;4.43;2.40;;;19.10;65.20;;;;;;4799395;29;20300;-31
2023/09/20 06:40:57;;;;;;;7.10;2.67;;;19.20;65.10;;;;;;4799421;29;20213;-31
2023/09/20 06:43:27;;;;;;;7.07;2.45;;;19.20;65.10;;;;;;4799529;29;20260;-31
2023/09/20 06:45:58;;;;;;;5.28;2.28;;;19.20;65.20;;;;;;4800070;29;20233;-31
2023/09/20 06:48:25;;;;;;;10.43;2.55;;;19.20;65.20;;;;;;4799355;29;20205;-31
2023/09/20 06:50:57;;;;;;;4.22;2.30;;;19.30;65.30;;;;;;4783624;29;20682;-28
2023/09/20 06:53:25;;;;;;;7.18;2.90;;;19.30;65.40;;;;;;4799357;29;20747;-29
2023/09/20 06:55:55;;;;;;;8.98;2.70;;;19.30;65.40;;;;;;4797681;29;20309;-29
2023/09/20 06:58:24;;;;;;;8.20;2.40;;;19.30;65.30;;;;;;4799007;29;20328;-28
2023/09/20 07:00:52;;;;;;;12.43;2.63;;;19.40;65.40;;;;;;4798945;29;20213;-29
2023/09/20 07:03:20;;;;;;;7.60;2.10;;;19.40;65.50;;;;;;4799351;29;20316;-29
2023/09/20 07:05:51;;;;;;;8.70;2.05;;;19.40;65.40;;;;;;4797817;29;20785;-29
2023/09/20 07:08:24;;;;;;;5.82;2.42;;;19.50;65.60;;;;;;4799217;29;20474;-29
2023/09/20 07:10:54;;;;;;;9.63;2.97;;;19.50;65.60;;;;;;4798011;29;20239;-29
2023/09/20 07:13:26;;;;;;;8.82;2.38;;;19.60;65.70;;;;;;4799327;29;20688;-29
2023/09/20 07:15:58;;;;;;;7.88;2.97;;;19.60;65.70;;;;;;4799075;29;20216;-29
2023/09/20 07:18:25;;;;;;;8.65;2.30;;;19.60;65.60;;;;;;4798766;29;20217;-28
2023/09/20 07:20:54;;;;;;;6.57;2.13;;;19.70;65.70;;;;;;4799257;29;20660;-29
2023/09/20 07:23:29;;;;;;;4.78;2.45;;;19.70;65.70;;;;;;4799203;29;20220;-28
2023/09/20 07:25:57;;;;;;;6.32;2.30;;;19.70;65.70;;;;;;4798878;29;20233;-29
2023/09/20 07:28:26;;;;;;;5.53;2.42;;;19.80;65.80;;;;;;4798678;29;20201;-28
2023/09/20 07:30:56;;;;;;;7.95;2.55;;;19.80;65.90;;;;;;4798500;29;20267;-29
2023/09/20 07:33:23;;;;;;;8.20;2.35;;;19.90;65.80;;;;;;4798677;29;20240;-28
2023/09/20 07:36:00;;;;;;;7.53;3.05;;;20.00;65.90;;;;;;4797185;29;20212;-28
2023/09/20 07:38:32;;;;;;;5.70;2.30;;;20.00;65.90;;;;;;4798545;29;20201;-28
2023/09/20 07:41:13;;;;;;;7.75;2.25;;;20.10;66.00;;;;;;4798846;29;20231;-29
2023/09/20 07:43:48;;;;;;;8.98;2.38;;;20.10;66.10;;;;;;4798476;29;20260;-28
2023/09/20 07:46:20;;;;;;;5.22;2.08;;;20.10;66.00;;;;;;4782345;29;20316;-28
2023/09/20 07:48:51;;;;;;;7.97;2.38;;;20.20;65.90;;;;;;4798098;29;20212;-29
2023/09/20 07:51:23;;;;;;;6.72;2.50;;;20.20;65.90;;;;;;4798962;29;20584;-29
2023/09/20 07:53:54;;;;;;;4.18;2.00;;;20.30;65.90;;;;;;4797079;29;20208;-29
2023/09/20 07:56:23;;;;;;;5.57;2.05;;;20.30;66.10;;;;;;4797011;29;20754;-29
2023/09/20 07:58:53;;;;;;;4.40;2.00;;;20.40;65.90;;;;;;4797175;29;20241;-28
2023/09/20 08:01:29;;;;;;;4.55;1.77;;;20.40;65.80;;;;;;4798788;29;20639;-29
2023/09/20 08:04:06;;;;;;;3.92;1.90;;;20.40;65.90;;;;;;4800722;29;20227;-28
2023/09/20 08:06:40;;;;;;;3.92;1.58;;;20.40;65.90;;;;;;4801883;29;20306;-29
2023/09/20 08:09:13;;;;;;;6.10;2.17;;;20.50;65.90;;;;;;4800748;29;20598;-28
2023/09/20 08:11:40;;;;;;;5.10;1.67;;;20.50;65.90;;;;;;4801660;29;20763;-28
2023/09/20 08:14:07;;;;;;;6.13;1.90;;;20.60;66.00;;;;;;4800425;29;20672;-29
2023/09/20 08:16:35;;;;;;;6.00;1.77;;;20.60;65.90;;;;;;4800335;29;20205;-29
2023/09/20 08:21:47;;;;;;;4.38;1.85;;;20.70;65.90;;;;;;4801795;29;20648;-28
2023/09/20 09:00:36;;;;;;;4.32;1.40;;;21.30;65.90;;;;;;4801629;29;20675;-28
2023/09/20 09:03:09;;;;;;;6.13;1.38;;;21.40;65.90;;;;;;4785205;29;20243;-28
2023/09/20 09:05:36;;;;;;;4.07;1.60;;;21.40;65.80;;;;;;4801127;29;20204;-28
2023/09/20 09:08:06;;;;;;;6.68;1.58;;;21.50;65.90;;;;;;4799462;29;20240;-28
2023/09/20 09:10:33;;;;;;;4.80;1.52;;;21.50;65.70;;;;;;4801081;29;20209;-28
2023/09/20 09:13:01;;;;;;;5.63;1.42;;;21.50;65.60;;;;;;4798680;29;20266;-28
2023/09/20 09:15:31;;;;;;;4.60;1.45;;;21.60;65.70;;;;;;4799512;29;20278;-28
2023/09/20 09:18:01;;;;;;;5.75;1.35;;;21.60;65.60;;;;;;4799607;29;20297;-28
2023/09/20 09:20:33;;;;;;;6.68;1.52;;;21.70;65.70;;;;;;4799376;29;20265;-28
2023/09/20 09:23:02;;;;;;;5.28;1.48;;;21.70;65.70;;;;;;4799475;29;20225;-28
2023/09/20 09:25:30;;;;;;;2.97;1.05;;;21.80;65.80;;;;;;4801299;29;20761;-28
2023/09/20 09:27:59;;;;;;;6.95;1.35;;;21.80;65.70;;;;;;4800691;29;20324;-28
2023/09/20 09:30:31;;;;;;;4.93;1.38;;;21.90;65.80;;;;;;4799409;29;20246;-28
2023/09/20 09:32:58;;;;;;;2.42;1.27;;;21.90;65.60;;;;;;4799496;29;20209;-28
2023/09/20 09:35:28;;;;;;;4.93;1.30;;;21.90;65.60;;;;;;4801023;29;20524;-28
2023/09/20 09:38:19;;;;;;;8.25;1.70;;;22.00;65.70;;;;;;4801240;29;20476;-32
2023/09/20 09:40:55;;;;;;;6.97;1.63;;;22.00;65.60;;;;;;4800662;29;20301;-33
2023/09/20 09:43:30;;;;;;;7.07;1.70;;;22.00;65.40;;;;;;4800298;29;20341;-28
2023/09/20 09:46:10;;;;;;;7.60;1.35;;;22.10;65.30;;;;;;4799175;29;20302;-28
2023/09/20 09:48:43;;;;;;;4.95;1.27;;;22.10;65.10;;;;;;4800706;29;20221;-28
2023/09/20 09:51:13;;;;;;;8.13;1.50;;;22.10;65.10;;;;;;4798965;29;20209;-29
2023/09/20 09:53:41;;;;;;;8.05;1.50;;;22.10;65.20;;;;;;4800270;29;20207;-27
2023/09/20 09:56:09;;;;;;;6.05;1.65;;;22.10;65.00;;;;;;4800020;29;20312;-28
2023/09/20 09:58:37;;;;;;;5.35;1.30;;;22.10;65.00;;;;;;4798556;29;20706;-28
2023/09/20 10:01:11;;;;;;;2.42;1.13;;;22.10;65.00;;;;;;4798573;29;20213;-28
2023/09/20 10:03:45;;;;;;;7.15;1.48;;;22.10;65.10;;;;;;4798467;29;20204;-28
2023/09/20 10:06:27;;;;;;;4.78;1.20;;;22.10;65.00;;;;;;4798365;29;20224;-28
2023/09/20 10:08:59;;;;;;;5.80;1.65;;;22.10;64.90;;;;;;4798563;29;20637;-29
2023/09/20 10:11:27;;;;;;;5.88;1.75;;;22.10;65.00;;;;;;4784118;29;20212;-28
2023/09/20 10:13:57;;;;;;;12.73;1.73;;;22.10;65.00;;;;;;4798629;29;20256;-28
2023/09/20 10:16:30;;;;;;;6.22;1.30;;;22.10;64.70;;;;;;4798898;29;20620;-28
2023/09/20 10:18:58;;;;;;;6.53;1.55;;;22.10;64.60;;;;;;4799487;29;20201;-29
2023/09/20 10:21:31;;;;;;;3.50;1.15;;;22.10;64.30;;;;;;4798476;29;20239;-28
2023/09/20 10:24:05;;;;;;;7.03;1.27;;;22.20;64.70;;;;;;4799435;29;20233;-29
2023/09/20 10:26:35;;;;;;;6.30;1.30;;;22.10;64.60;;;;;;4783823;29;20414;-28
2023/09/20 10:29:26;;;;;;;3.17;1.08;;;22.20;64.70;;;;;;4799809;29;20208;-33
2023/09/20 10:31:54;;;;;;;6.57;1.50;;;22.10;64.40;;;;;;4799730;29;20759;-33
2023/09/20 10:34:23;;;;;;;6.43;1.40;;;22.20;64.50;;;;;;4799624;29;20201;-33
2023/09/20 10:36:52;;;;;;;7.13;1.40;;;22.20;64.50;;;;;;4798036;29;20209;-34
2023/09/20 10:39:19;;;;;;;7.95;1.50;;;22.20;64.40;;;;;;4797815;29;20213;-33
2023/09/20 10:41:53;;;;;;;9.60;1.60;;;22.20;64.30;;;;;;4799283;29;20224;-33
2023/09/20 10:44:26;;;;;;;5.75;1.42;;;22.10;63.80;;;;;;4797858;29;20265;-33
2023/09/20 10:46:54;;;;;;;4.53;1.23;;;22.20;64.00;;;;;;4799368;29;20314;-33
2023/09/20 10:49:52;;;;;;;4.22;1.40;;;22.20;63.70;;;;;;4799287;29;20919;-33
2023/09/20 10:52:34;;;;;;;4.78;1.33;;;22.20;64.00;;;;;;4798226;29;20209;-33
2023/09/20 10:55:18;;;;;;;3.00;1.20;;;22.20;64.00;;;;;;4799296;29;20712;-33
2023/09/20 10:57:50;;;;;;;5.07;1.20;;;22.20;64.00;;;;;;4799124;29;21072;-33
2023/09/20 11:00:30;;;;;;;4.10;1.10;;;22.20;64.20;;;;;;4797674;29;20634;-33
2023/09/20 11:02:58;;;;;;;3.92;1.10;;;22.20;64.20;;;;;;4797878;29;20205;-34
2023/09/20 11:05:28;;;;;;;5.28;1.30;;;22.30;64.30;;;;;;4798974;29;20217;-34
2023/09/20 11:07:59;;;;;;;6.47;1.60;;;22.30;64.30;;;;;;4797264;29;20233;-33
2023/09/20 11:10:29;;;;;;;4.53;1.35;;;22.30;64.30;;;;;;4798766;29;20224;-33
2023/09/20 11:12:56;;;;;;;3.85;1.25;;;22.30;64.30;;;;;;4797191;29;20764;-33
2023/09/20 11:15:24;;;;;;;6.07;1.33;;;22.40;64.30;;;;;;4798727;29;20632;-33
2023/09/20 11:17:54;;;;;;;3.88;1.48;;;22.40;64.20;;;;;;4782714;29;20285;-33
2023/09/20 11:20:24;;;;;;;5.45;1.48;;;22.40;64.30;;;;;;4797389;29;20209;-34
2023/09/20 11:22:52;;;;;;;3.95;1.05;;;22.50;64.30;;;;;;4798704;29;20213;-33
2023/09/20 11:25:20;;;;;;;3.85;1.60;;;22.50;64.10;;;;;;4796870;29;20229;-33
2023/09/20 11:27:47;;;;;;;7.15;1.80;;;22.50;64.30;;;;;;4798511;29;20225;-33
2023/09/20 11:30:18;;;;;;;7.68;1.45;;;22.50;64.30;;;;;;4799163;29;20244;-33
2023/09/20 11:32:45;;;;;;;4.13;1.35;;;22.60;64.30;;;;;;4797103;29;20601;-37
2023/09/20 11:35:38;;;;;;;3.33;1.20;;;22.60;64.30;;;;;;4798651;29;20289;-33
2023/09/20 11:38:11;;;;;;;5.60;1.80;;;22.60;64.00;;;;;;4798479;29;20216;-33
2023/09/20 11:40:42;;;;;;;2.22;1.00;;;22.60;64.10;;;;;;4797224;29;20208;-34
2023/09/20 11:43:09;;;;;;;5.10;1.20;;;22.70;64.10;;;;;;4798807;29;20603;-33
2023/09/20 11:45:41;;;;;;;4.97;1.40;;;22.70;64.10;;;;;;4796975;29;20274;-33
2023/09/20 11:48:31;;;;;;;4.60;1.05;;;22.70;64.00;;;;;;4797264;29;20321;-33
2023/09/20 11:51:01;;;;;;;7.43;1.40;;;22.80;64.10;;;;;;4797282;29;20311;-33
2023/09/20 11:53:32;;;;;;;5.32;1.42;;;22.80;63.80;;;;;;4797123;29;20209;-33
2023/09/20 11:56:03;;;;;;;2.75;1.13;;;22.80;64.00;;;;;;4782366;29;20763;-33
2023/09/20 11:58:33;;;;;;;5.57;1.27;;;22.80;64.00;;;;;;4797222;29;20237;-34
2023/09/20 12:01:05;;;;;;;3.47;1.20;;;22.90;64.10;;;;;;4782438;29;20636;-33
2023/09/20 12:03:35;;;;;;;7.68;1.60;;;22.90;64.00;;;;;;4798427;29;20220;-33
2023/09/20 12:06:03;;;;;;;7.18;2.05;;;23.00;63.90;;;;;;4798935;29;20604;-33
2023/09/20 12:08:31;;;;;;;6.88;1.80;;;23.00;63.60;;;;;;4797454;29;20247;-33
2023/09/20 12:11:01;;;;;;;4.60;1.05;;;23.00;63.20;;;;;;4798543;29;20205;-33
2023/09/20 12:13:28;;;;;;;2.25;1.05;;;23.10;63.70;;;;;;4798252;29;20676;-33
2023/09/20 12:15:55;;;;;;;12.30;1.75;;;23.00;63.60;;;;;;4798482;29;20244;-34
2023/09/20 12:18:26;;;;;;;7.20;1.60;;;23.00;63.60;;;;;;4796908;29;20264;-33
2023/09/20 12:20:57;;;;;;;6.35;1.42;;;23.10;63.60;;;;;;4798522;29;20476;-33
2023/09/20 12:23:27;;;;;;;7.43;1.10;;;23.10;63.60;;;;;;4797089;29;20209;-33
2023/09/20 12:25:55;;;;;;;4.57;1.45;;;23.10;63.50;;;;;;4798181;29;20252;-33
2023/09/20 12:28:23;;;;;;;11.68;2.10;;;23.10;63.40;;;;;;4781612;29;20289;-33
2023/09/20 12:30:56;;;;;;;7.75;1.20;;;23.10;63.30;;;;;;4798212;29;20209;-33
2023/09/20 12:33:25;;;;;;;10.63;1.60;;;23.10;63.30;;;;;;4798342;29;20213;-33
2023/09/20 12:36:01;;;;;;;6.10;1.38;;;23.10;63.50;;;;;;4782172;29;20266;-34
2023/09/20 12:38:29;;;;;;;5.72;1.35;;;23.10;63.40;;;;;;4796459;29;20205;-33
2023/09/20 12:40:59;;;;;;;6.28;1.52;;;23.10;63.60;;;;;;4798251;29;20296;-33
2023/09/20 12:43:26;;;;;;;2.63;1.20;;;23.20;63.50;;;;;;4796565;29;20252;-33
2023/09/20 12:45:57;;;;;;;8.75;1.70;;;23.20;63.40;;;;;;4797107;29;20210;-33
2023/09/20 12:48:29;;;;;;;4.80;1.13;;;23.20;63.30;;;;;;4783737;29;20307;-33
2023/09/20 12:50:57;;;;;;;4.70;1.20;;;23.20;63.30;;;;;;4801185;29;20212;-33
2023/09/20 12:53:31;;;;;;;6.00;1.25;;;23.30;63.30;;;;;;4799888;29;20220;-33
2023/09/20 12:56:05;;;;;;;3.85;1.10;;;23.30;63.40;;;;;;4801221;29;20201;-33
2023/09/20 12:58:32;;;;;;;3.85;1.50;;;23.30;63.40;;;;;;4801152;29;20209;-33
2023/09/20 13:00:59;;;;;;;7.13;1.42;;;23.40;63.40;;;;;;4801134;29;20225;-33
2023/09/20 13:03:29;;;;;;;3.05;1.42;;;23.40;63.40;;;;;;4799488;29;20229;-33
2023/09/20 13:05:56;;;;;;;3.05;1.10;;;23.40;63.40;;;;;;4800000;29;20685;-34
2023/09/20 13:08:28;;;;;;;4.10;1.25;;;23.50;63.30;;;;;;4801189;29;20273;-34
2023/09/20 13:11:00;;;;;;;7.60;1.70;;;23.50;63.30;;;;;;4799651;29;20304;-33
2023/09/20 13:13:27;;;;;;;4.50;1.48;;;23.60;63.40;;;;;;4800043;29;20271;-34
2023/09/20 13:15:54;;;;;;;7.25;1.90;;;23.60;63.40;;;;;;4799299;29;20244;-33
2023/09/20 13:18:22;;;;;;;3.72;1.60;;;23.70;63.40;;;;;;4800891;29;20661;-33
2023/09/20 13:20:54;;;;;;;5.82;1.50;;;23.70;63.40;;;;;;4799408;29;20322;-33
2023/09/20 13:23:22;;;;;;;5.45;1.45;;;23.70;63.30;;;;;;4801268;29;20216;-33
2023/09/20 13:25:55;;;;;;;5.22;1.23;;;23.80;63.50;;;;;;4799264;29;20209;-28
2023/09/20 13:28:22;;;;;;;3.63;1.40;;;23.80;63.40;;;;;;4800540;29;20324;-29
2023/09/20 13:30:51;;;;;;;3.22;1.25;;;23.80;63.20;;;;;;4799243;29;20245;-29
2023/09/20 13:33:18;;;;;;;4.20;1.40;;;23.90;63.20;;;;;;4800794;29;20208;-29
2023/09/20 13:35:48;;;;;;;3.30;1.10;;;23.90;62.60;;;;;;4799039;29;20731;-29
2023/09/20 13:38:15;;;;;;;7.78;1.40;;;23.90;63.00;;;;;;4800549;29;20212;-28
2023/09/20 13:40:46;;;;;;;7.13;1.38;;;23.90;62.70;;;;;;4800408;29;20219;-28